Jolon, California
Current Conditions -  °F | °C
As of 12:53 PM on Thursday 25 Dec 2014 (Local Time) from KPRB Reporting Station
Clear Clear  
Wind Chill: 54°   Ceiling: Unl
Heat Index: 54°   Visibility: 10mi
Dew Point: 34°   Wind: 13mph
Humidity: 47%   Direction: 320°NW
Pressure: 29.99"   Gusts: NA
Location:  35.97°N, 121.18°W
Report Text: KPRB 252053Z AUTO 32011KT 10SM CLR 12/01 A2999 RMK AO2 SLP153 T01220011 58020 TSNO
Loading
Personal Weather Stations






























Interactive Weather Map New forecast layout! Learn more

10-Day Weather Forecast

Advertisements
Track Severe Weather on mobile